Kirksville, MO

5:18 PM CDT on August 29, 2014 (GMT -0500)
Kirksville Regional | Change Station
CLOSE
Current Station
Airport
Location: Kirksville,
Elevation: 965 ft
Nearby Weather Stations

Elev 965 ft 40.10 °N, 92.55 °W | Updated 23 minutes ago

Partly Cloudy
Partly Cloudy
77 °F
Feels Like 77 °F
N
6
Wind Variable Wind from SSW

Today
High -- | Low -- °F
--% Chance of Precip.
Yesterday
High -- | Low -- °F
Precip. -- in
6:35 AM 7:46 PM
Waxing Crescent, 17% visible
Pressure 29.81 in
Visibility 10.0 miles
Clouds Few 11000 ft
Dew Point 72 °F
Humidity 84%
Rainfall 0.24 in
Snow Depth Not available.
UV 3 out of 12
Pollen 10.10 out of 12
Air Quality Not available.
Flu Activity Not available.
METAR KIRK 292155Z AUTO 21005KT 10SM FEW110 25/22 A2982 RMK AO2 SLP094 T02500222

More Conditions Fewer Conditions

Pressure 29.81 in
Visibility 10.0 miles
Clouds Few 11000 ft
Dew Point 72 °F
Humidity 84%
Rainfall 0.24 in
Snow Depth Not available.
UV 3 out of 12
Pollen 10.10 out of 12
Air Quality Not available.
Flu Activity Not available.
METAR KIRK 292155Z AUTO 21005KT 10SM FEW110 25/22 A2982 RMK AO2 SLP094 T02500222

More Conditions Fewer Conditions

10-Day Weather Forecast

Almanac

Astronomy

Aug. 29, 2014 Rise Set
Actual Time 6:35 AM CDT 7:46 PM CDT
Civil Twilight 6:07 AM CDT 8:14 PM CDT
Nautical Twilight 5:33 AM CDT 8:47 PM CDT
Astronomical Twilight 4:58 AM CDT 9:22 PM CDT
Moon 10:25 AM CDT 9:44 PM CDT
Length of Visible Light 14h 07m
Length of Day
13h 11m
Tomorrow will be 2m 30s shorter.
Waxing Crescent, 17% of the Moon is Illuminated
Today
Waxing Crescent
Sep 2
First Quarter
Sep 8
Full
Sep 15
Last Quarter
Sep 24
New

Today's Extremes

State Highs State Lows

Community

WunderPhotos

Upload Photos

1,748,356 photos uploaded!

Nearby

Snow Depth

Station Depth Elevation
No new snow has been reported.

Earthquake Activity

City Distance Mag. Time & Date
No recent earthquake activity has been reported nearby.
Minimum magnitude displayed is 2.5.

Coastal Water Temperatures

Place Temperature
No Stations Reporting

Nearby Weather Stations